Terminal Aerodrome Forecast
Issued by NWS Sioux Falls, SD

Home | Current Version | Previous Version | Text Only | Print | Product List | Glossary Off
Versions: 1 2 3 4 5 6 7 8 9 10 11 12 13 14 15 16 17 18 19

000
FTUS43 KFSD 280230 AAA
TAFHON
TAF AMD
KHON 280230Z 2803/2824 06013KT 6SM -RA OVC015
     FM281400 03011KT 4SM -RA OVC012
     FM281800 02011KT P6SM OVC020=

USA.gov is the U.S. government's official web portal to all federal, state and local government web resources and services.